D/T METAR WX W/DIR W/SPE G/SPE TEMP DEWP
23/03/19 12:20 EGEO 231220Z 28014KT 9999 SCT038 09/03 Q1030 W (280°) 16.1mph 9°C 3°C
23/03/19 11:20 EGEO 231120Z 28017KT 9999 FEW038 08/01 Q1030 W (280°) 19.6mph 8°C 1°C
23/03/19 10:20 EGEO 231020Z 28015KT 9999 FEW040CB 08/02 Q1030 W (280°) 17.3mph 8°C 2°C
23/03/19 09:50 EGEO 230950Z 27013KT 9999 FEW040CB 07/02 Q1030 W (270°) 15.0mph 7°C 2°C
23/03/19 08:50 EGEO 230850Z 30009KT 9999 VCSH FEW023 SCT038 06/02 Q1029 VCSH WNW (300°) 10.4mph 6°C 2°C
23/03/19 08:20 EGEO 230820Z 32017G31KT 9999 VCSH SCT030CB 05/02 Q1029 VCSH NW (320°) 19.6mph 35.7mph 5°C 2°C
23/03/19 07:50 EGEO 230750Z 27010KT 9999 VCSH SCT035CB 06/02 Q1028 VCSH W (270°) 11.5mph 6°C 2°C
22/03/19 13:50 EGEO 221350Z 24012KT 210V270 9999 VCSH FEW031 SCT036 11/07 Q1016 VCSH WSW (240°) 13.8mph 11°C 7°C
22/03/19 13:20 EGEO 221320Z 23010KT 9999 VCSH SCT028 10/08 Q1016 VCSH SW (230°) 11.5mph 10°C 8°C
22/03/19 12:20 EGEO 221220Z 23016KT 7000 -RADZ FEW007 SCT010 OVC023 09/07 Q1015 -RA -DZ SW (230°) 18.4mph 9°C 7°C
22/03/19 11:20 EGEO 221120Z 23017KT 4000 -RADZ FEW011 SCT013 OVC031 09/08 Q1015 -RA -DZ SW (230°) 19.6mph 9°C 8°C
22/03/19 10:20 EGEO 221020Z 20020G31KT 4000 -RADZ BKN017 OVC025 10/08 Q1014 -RA -DZ SSW (200°) 23.0mph 35.7mph 10°C 8°C
22/03/19 09:50 EGEO 220950Z 20019KT 6000 -RADZ SCT019 BKN028 OVC054 10/08 Q1014 -RA -DZ SSW (200°) 21.9mph 10°C 8°C
22/03/19 09:20 EGEO 220920Z 20019G30KT 6000 -RADZ FEW024 BKN030 10/08 Q1014 -RA -DZ SSW (200°) 21.9mph 34.5mph 10°C 8°C
22/03/19 08:50 EGEO 220850Z 20021G34KT 6000 -RADZ FEW024 BKN030 10/07 Q1014 -RA -DZ SSW (200°) 24.2mph 39.1mph 10°C 7°C
21/03/19 14:50 EGEO 211450Z 21005KT 9000 VCSH SCT017 BKN035 11/09 Q1028 VCSH SSW (210°) 5.8mph 11°C 9°C
21/03/19 13:50 EGEO 211350Z 19007KT 9999 FEW012 SCT021 BKN026 11/09 Q1028 S (190°) 8.1mph 11°C 9°C
21/03/19 13:20 EGEO 211320Z 20006KT 9999 FEW012 SCT018 11/09 Q1028 SSW (200°) 6.9mph 11°C 9°C
21/03/19 11:50 EGEO 211150Z 21009KT 9999 VCSH FEW016 BKN027 11/09 Q1029 VCSH SSW (210°) 10.4mph 11°C 9°C
21/03/19 11:20 EGEO 211120Z 22008KT 9999 FEW009 BKN024 11/09 Q1028 SW (220°) 9.2mph 11°C 9°C
21/03/19 10:20 EGEO 211020Z 23005KT 190V250 9999 FEW010 BKN024 10/09 Q1028 SW (230°) 5.8mph 10°C 9°C
21/03/19 09:50 EGEO 210950Z 25008KT 9999 VCSH SCT011 BKN024 10/09 Q1028 VCSH WSW (250°) 9.2mph 10°C 9°C
21/03/19 09:20 EGEO 210920Z 30005KT 250V350 9999 FEW010 BKN026 10/09 Q1028 WNW (300°) 5.8mph 10°C 9°C
21/03/19 08:50 EGEO 210850Z 29006KT 260V330 9999 FEW015 SCT029 09/08 Q1027 WNW (290°) 6.9mph 9°C 8°C
21/03/19 07:50 EGEO 210750Z 28013KT 9999 FEW005 SCT019 BKN031 09/09 Q1026 W (280°) 15.0mph 9°C 9°C
20/03/19 15:50 EGEO 201550Z 21012KT 6000 -DZ FEW011 OVC015 12/10 Q1023 -DZ SSW (210°) 13.8mph 12°C 10°C
20/03/19 15:20 EGEO 201520Z 21012KT 6000 -DZ FEW013 OVC015 12/10 Q1023 -DZ SSW (210°) 13.8mph 12°C 10°C
20/03/19 14:50 EGEO 201450Z 20014KT 9000 VCSH FEW012 OVC019 12/10 Q1023 VCSH SSW (200°) 16.1mph 12°C 10°C
20/03/19 14:20 EGEO 201420Z 20014KT 9000 VCSH FEW012 OVC019 11/10 Q1023 VCSH SSW (200°) 16.1mph 11°C 10°C
20/03/19 13:50 EGEO 201350Z 20011KT 7000 -DZ BKN010 OVC020 11/10 Q1024 -DZ SSW (200°) 12.7mph 11°C 10°C
20/03/19 13:20 EGEO 201320Z 20010KT 7000 -DZ OVC010 11/09 Q1025 -DZ SSW (200°) 11.5mph 11°C 9°C
20/03/19 12:50 EGEO 201250Z 20010KT 7000 -DZ OVC009 11/10 Q1025 -DZ SSW (200°) 11.5mph 11°C 10°C
20/03/19 11:50 EGEO 201150Z 20014KT 6000 -DZ FEW007 SCT010 OVC024 11/10 Q1025 -DZ SSW (200°) 16.1mph 11°C 10°C
20/03/19 11:20 EGEO 201120Z 20009KT 6000 -DZ BKN006 OVC014 10/10 Q1025 -DZ SSW (200°) 10.4mph 10°C 10°C
20/03/19 09:50 EGEO 200950Z 23008KT 2000 BR BKN006 OVC017 10/09 Q1025 BR SW (230°) 9.2mph 10°C 9°C
20/03/19 09:20 EGEO 200920Z 23010KT 7000 -DZ BKN006 OVC014 09/09 Q1025 -DZ SW (230°) 11.5mph 9°C 9°C
20/03/19 08:50 EGEO 200850Z 24008KT 7000 VCFG BKN006 OVC013 09/09 Q1025 VCFG WSW (240°) 9.2mph 9°C 9°C
20/03/19 08:20 EGEO 200820Z 23011KT 7000 FEW002 SCT018 BKN028 OVC042 09/08 Q1025 SW (230°) 12.7mph 9°C 8°C
20/03/19 07:50 EGEO 200750Z 22006KT 9000 VCFG FEW005 SCT020 BKN035 09/08 Q1025 VCFG SW (220°) 6.9mph 9°C 8°C
19/03/19 09:20 EGEO 190920Z 17006KT 6000 -RA FEW008 BKN014 OVC025 08/07 Q1020 -RA S (170°) 6.9mph 8°C 7°C
19/03/19 08:50 EGEO 190850Z 18009KT 5000 -DZRA FEW008 BKN014 OVC028 08/07 Q1019 -DZ -RA S (180°) 10.4mph 8°C 7°C
19/03/19 08:20 EGEO 190820Z 15005KT 110V190 8000 -DZ FEW014 BKN021 OVC038 08/06 Q1020 -DZ SSE (150°) 5.8mph 8°C 6°C
19/03/19 07:20 EGEO 190720Z 20005KT 5000 -RADZ SCT014 BKN028 08/06 Q1020 -RA -DZ SSW (200°) 5.8mph 8°C 6°C
18/03/19 15:50 EGEO 181550Z 35003KT 9999 FEW016 SCT019 BKN032 07/06 Q1017 N (350°) 3.5mph 7°C 6°C
18/03/19 15:20 EGEO 181520Z 29005KT 9999 VCSH FEW016 SCT019 BKN032 07/06 Q1017 VCSH WNW (290°) 5.8mph 7°C 6°C
18/03/19 14:50 EGEO 181450Z 12006KT 090V160 9999 FEW016 SCT019 BKN036 08/05 Q1016 ESE (120°) 6.9mph 8°C 5°C
18/03/19 14:20 EGEO 181420Z 12007KT 090V150 9999 VCSH FEW016 SCT020 BKN036 08/05 Q1016 VCSH ESE (120°) 8.1mph 8°C 5°C
18/03/19 13:50 EGEO 181350Z 13006KT 9999 FEW016 SCT020 BKN036 08/05 Q1016 SE (130°) 6.9mph 8°C 5°C
18/03/19 11:50 EGEO 181150Z 12007KT 9999 FEW014 SCT023 BKN036 07/05 Q1015 ESE (120°) 8.1mph 7°C 5°C
18/03/19 10:50 EGEO 181050Z 11008KT 8000 -RA FEW014 SCT023 BKN036 06/05 Q1015 -RA ESE (110°) 9.2mph 6°C 5°C
18/03/19 09:20 EGEO 180920Z 10007KT 8000 FEW010 SCT018 BKN026 04/04 Q1015 E (100°) 8.1mph 4°C 4°C
18/03/19 08:20 EGEO 180820Z 10007KT 7000 -RADZ FEW010 SCT018 BKN026 04/03 Q1014 -RA -DZ E (100°) 8.1mph 4°C 3°C
18/03/19 07:50 EGEO 180750Z 10005KT 9999 FEW014 SCT022 BKN042 04/03 Q1014 E (100°) 5.8mph 4°C 3°C
17/03/19 15:50 EGEO 171550Z 33023KT 9999 FEW020 09/00 Q1005 NNW (330°) 26.5mph 9°C 0°C
17/03/19 14:20 EGEO 171420Z 32016KT 9999 FEW020 08/04 Q1003 NW (320°) 18.4mph 8°C 4°C
17/03/19 12:50 EGEO 171250Z 32020KT 9999 FEW022 08/03 Q1001 NW (320°) 23.0mph 8°C 3°C
17/03/19 12:20 EGEO 171220Z 32011KT 9999 FEW020 07/03 Q1000 NW (320°) 12.7mph 7°C 3°C
17/03/19 11:50 EGEO 171150Z 33017G27KT 9999 FEW020 07/03 Q0999 NNW (330°) 19.6mph 31.1mph 7°C 3°C
17/03/19 11:20 EGEO 171120Z 33014KT 9999 FEW019 07/02 Q0998 NNW (330°) 16.1mph 7°C 2°C
17/03/19 10:50 EGEO 171050Z 28013KT 9999 FEW019 07/03 Q0998 W (280°) 15.0mph 7°C 3°C
17/03/19 10:20 EGEO 171020Z 29014KT 9999 FEW019 06/03 Q0997 WNW (290°) 16.1mph 6°C 3°C
17/03/19 09:50 EGEO 170950Z 30014KT 9999 FEW016 SCT028 06/03 Q0997 WNW (300°) 16.1mph 6°C 3°C
17/03/19 09:20 EGEO 170920Z 30018KT 9999 FEW014CB SCT028 05/03 Q0996 WNW (300°) 20.7mph 5°C 3°C
17/03/19 08:50 EGEO 170850Z 28019KT 9999 VCSH FEW014CB SCT028 05/03 Q0996 VCSH W (280°) 21.9mph 5°C 3°C
16/03/19 12:50 EGEO 161250Z 03012KT 8000 -DZ FEW013 SCT026 BKN030 04/02 Q0984 -DZ NNE (30°) 13.8mph 4°C 2°C
16/03/19 12:20 EGEO 161220Z 03008KT 360V060 7000 -RASN FEW013 SCT016 BKN019 OVC030 03/02 Q0984 -RA -SN NNE (30°) 9.2mph 3°C 2°C
16/03/19 11:50 EGEO 161150Z 04005KT 360V070 6000 -RASN FEW013 SCT016 BKN019 OVC030 03/01 Q0985 -RA -SN NE (40°) 5.8mph 3°C 1°C
16/03/19 11:20 EGEO 161120Z 04008KT 010V070 7000 -RA FEW010 BKN021 OVC030 03/01 Q0985 -RA NE (40°) 9.2mph 3°C 1°C
16/03/19 10:20 EGEO 161020Z 06005KT 030V090 7000 -RA FEW010 BKN021 OVC032 03/01 Q0986 -RA ENE (60°) 5.8mph 3°C 1°C
16/03/19 08:50 EGEO 160850Z 05004KT 7000 FEW010 BKN023 OVC030 03/01 Q0988 NE (50°) 4.6mph 3°C 1°C
16/03/19 08:20 EGEO 160820Z 08003KT 6000 -RA FEW008 BKN023 OVC030 02/01 Q0990 -RA E (80°) 3.5mph 2°C 1°C
16/03/19 07:50 EGEO 160750Z 08003KT 6000 -RASN FEW008 BKN023 OVC030 03/02 Q0991 -RA -SN E (80°) 3.5mph 3°C 2°C
15/03/19 15:20 EGEO 151520Z 27025G38KT 9999 -SHRA FEW030 SCT036 07/02 Q0999 -SHRA W (270°) 28.8mph 43.7mph 7°C 2°C
15/03/19 14:20 EGEO 151420Z 29022KT 9999 -SHRA FEW030 SCT036CB 06/02 Q0998 -SHRA WNW (290°) 25.3mph 6°C 2°C
15/03/19 13:50 EGEO 151350Z 28032KT 9999 VCSH FEW028 SCT038CB 07/01 Q0997 VCSH W (280°) 36.8mph 7°C 1°C
15/03/19 13:20 EGEO 151320Z 28027KT 9999 VCSH FEW028 SCT038CB 07/01 Q0997 VCSH W (280°) 31.1mph 7°C 1°C
15/03/19 12:20 EGEO 151220Z 27026KT 8000 VCSH FEW024 SCT035CB 07/02 Q0996 VCSH W (270°) 29.9mph 7°C 2°C
15/03/19 11:50 EGEO 151150Z 28028KT 9999 VCSH FEW020 BKN032CB 06/02 Q0996 VCSH W (280°) 32.2mph 6°C 2°C
15/03/19 11:20 EGEO 151120Z 28026KT 9999 VCSH FEW020 BKN032CB 05/02 Q0996 VCSH W (280°) 29.9mph 5°C 2°C
15/03/19 10:50 EGEO 151050Z 29021KT 9999 VCSH FEW024 SCT032CB 06/03 Q0995 VCSH WNW (290°) 24.2mph 6°C 3°C
15/03/19 10:20 EGEO 151020Z 28028G38KT 9999 VCSH FEW020 SCT031CB 06/03 Q0995 VCSH W (280°) 32.2mph 43.7mph 6°C 3°C
15/03/19 09:20 EGEO 150920Z 28033G43KT 9999 VCSH SCT030CB 07/01 Q0994 VCSH W (280°) 38.0mph 49.5mph 7°C 1°C
15/03/19 08:50 EGEO 150850Z 29025KT 9999 -SHRA SCT026CB SCT040 07/03 Q0994 -SHRA WNW (290°) 28.8mph 7°C 3°C
14/03/19 15:50 EGEO 141550Z 28021KT 9999 VCSH FEW022 SCT032CB 08/04 Q0998 VCSH W (280°) 24.2mph 8°C 4°C
14/03/19 15:20 EGEO 141520Z 27018KT 9999 VCSH FEW020 SCT024 08/04 Q0998 VCSH W (270°) 20.7mph 8°C 4°C
14/03/19 13:20 EGEO 141320Z 28019KT 9999 VCSH FEW020 SCT024 07/04 Q0997 VCSH W (280°) 21.9mph 7°C 4°C
14/03/19 12:50 EGEO 141250Z 30024G38KT 9999 -SHRA FEW023 SCT029 06/04 Q0997 -SHRA WNW (300°) 27.6mph 43.7mph 6°C 4°C
14/03/19 11:50 EGEO 141150Z 28021KT 9999 VCSH FEW027 SCT029 08/05 Q0996 VCSH W (280°) 24.2mph 8°C 5°C
14/03/19 10:50 EGEO 141050Z 28016KT 9999 VCSH FEW029 SCT027 08/04 Q0996 VCSH W (280°) 18.4mph 8°C 4°C
14/03/19 10:20 EGEO 141020Z 31020KT 9999 FEW018 SCT025CB 07/03 Q0995 NW (310°) 23.0mph 7°C 3°C
14/03/19 09:50 EGEO 140950Z 26011KT 9000 VCSH FEW018 SCT025 08/05 Q0995 VCSH W (260°) 12.7mph 8°C 5°C
14/03/19 09:20 EGEO 140920Z 29015KT 9999 FEW018 SCT024 07/03 Q0994 WNW (290°) 17.3mph 7°C 3°C
14/03/19 08:50 EGEO 140850Z 26013KT 9999 VCSH FEW021 SCT025CB 07/05 Q0994 VCSH W (260°) 15.0mph 7°C 5°C
14/03/19 08:20 EGEO 140820Z 27017KT 9999 VCSH FEW018 SCT025 07/04 Q0993 VCSH W (270°) 19.6mph 7°C 4°C
14/03/19 07:50 EGEO 140750Z 26012KT 9999 VCSH FEW020 SCT025 07/04 Q0992 VCSH W (260°) 13.8mph 7°C 4°C
13/03/19 15:20 EGEO 131520Z 29028KT 9999 VCSH FEW020 BKN030 07/04 Q1004 VCSH WNW (290°) 32.2mph 7°C 4°C
13/03/19 14:50 EGEO 131450Z 29029KT 9999 VCSH FEW022 BKN029 08/04 Q1004 VCSH WNW (290°) 33.4mph 8°C 4°C
13/03/19 14:20 EGEO 131420Z 30023G33KT 9000 VCSH FEW022 SCT027 BKN037 08/03 Q1004 VCSH WNW (300°) 26.5mph 38.0mph 8°C 3°C
13/03/19 13:50 EGEO 131350Z 28018KT 9999 VCSH SCT025 BKN038 08/04 Q1004 VCSH W (280°) 20.7mph 8°C 4°C
13/03/19 13:20 EGEO 131320Z 29023KT 9999 VCSH SCT025 BKN038 08/04 Q1004 VCSH WNW (290°) 26.5mph 8°C 4°C
13/03/19 12:50 EGEO 131250Z 28015KT 9999 VCSH FEW020 SCT025CB 08/04 Q1003 VCSH W (280°) 17.3mph 8°C 4°C
13/03/19 12:20 EGEO 131220Z 29017KT 9999 VCSH FEW020 SCT025CB 07/04 Q1003 VCSH WNW (290°) 19.6mph 7°C 4°C
13/03/19 11:50 EGEO 131150Z 32019G29KT 9999 VCSH FEW012 SCT027CB 07/04 Q1002 VCSH NW (320°) 21.9mph 33.4mph 7°C 4°C
13/03/19 11:20 EGEO 131120Z 32022G33KT 9000 -SHRA FEW012 SCT017 BKN024CB 07/04 Q1002 -SHRA NW (320°) 25.3mph 38.0mph 7°C 4°C
13/03/19 09:50 EGEO 130950Z 30021KT 9999 VCSH FEW014 SCT024CB 08/04 Q1000 VCSH WNW (300°) 24.2mph 8°C 4°C
13/03/19 08:50 EGEO 130850Z 33019G29KT 9999 VCSH FEW017 SCT023CB 08/04 Q0998 VCSH NNW (330°) 21.9mph 33.4mph 8°C 4°C
13/03/19 08:20 EGEO 130820Z 32021G31KT 9999 VCSH FEW017 SCT022CB 08/04 Q0997 VCSH NW (320°) 24.2mph 35.7mph 8°C 4°C
13/03/19 07:50 EGEO 130750Z 31021KT 9999 VCSH FEW012 SCT022CB 07/04 Q0995 VCSH NW (310°) 24.2mph 7°C 4°C
12/03/19 15:50 EGEO 121550Z 23027G41KT 7000 VCSH BKN015 OVC020 05/04 Q0979 VCSH SW (230°) 31.1mph 47.2mph 5°C 4°C
12/03/19 15:20 EGEO 121520Z 21023G34KT 6000 -RADZ FEW013 OVC015 05/03 Q0979 -RA -DZ SSW (210°) 26.5mph 39.1mph 5°C 3°C
12/03/19 14:50 EGEO 121450Z 21022G35KT 6000 -RADZ BKN013 OVC020 04/03 Q0981 -RA -DZ SSW (210°) 25.3mph 40.3mph 4°C 3°C
12/03/19 14:20 EGEO 121420Z 20021KT 6000 -RADZ FEW014 OVC021 05/02 Q0982 -RA -DZ SSW (200°) 24.2mph 5°C 2°C
12/03/19 13:50 EGEO 121350Z 21019G30KT 8000 VCSH FEW020 OVC034 06/02 Q0984 VCSH SSW (210°) 21.9mph 34.5mph 6°C 2°C
12/03/19 12:20 EGEO 121220Z 22018KT 8000 -SHRA FEW027 SCT042CB 06/01 Q0987 -SHRA SW (220°) 20.7mph 6°C 1°C
12/03/19 11:50 EGEO 121150Z 23019KT 9999 VCSH FEW027 SCT039CB 06/02 Q0987 VCSH SW (230°) 21.9mph 6°C 2°C
12/03/19 11:20 EGEO 121120Z 22020G33KT 190V270 9999 VCSH FEW030 SCT039CB 07/01 Q0988 VCSH SW (220°) 23.0mph 38.0mph 7°C 1°C
12/03/19 10:50 EGEO 121050Z 22016KT 9000 VCSH BKN029 OVC039 07/03 Q0988 VCSH SW (220°) 18.4mph 7°C 3°C
12/03/19 10:20 EGEO 121020Z 23014KT 9999 VCSH FEW030 SCT037 07/02 Q0989 VCSH SW (230°) 16.1mph 7°C 2°C
12/03/19 09:50 EGEO 120950Z 23014KT 9999 FEW027 SCT036 07/02 Q0989 SW (230°) 16.1mph 7°C 2°C
12/03/19 09:20 EGEO 120920Z 24012KT 9999 FEW024CB SCT035 06/02 Q0989 WSW (240°) 13.8mph 6°C 2°C
12/03/19 08:50 EGEO 120850Z 24014G24KT 9999 FEW024CB SCT035 06/02 Q0989 WSW (240°) 16.1mph 27.6mph 6°C 2°C
12/03/19 08:20 EGEO 120820Z 23012KT 9999 VCSH SCT025 SCT035 05/02 Q0989 VCSH SW (230°) 13.8mph 5°C 2°C
12/03/19 07:50 EGEO 120750Z 23013KT 8000 VCSH FEW017 SCT024 OVC032 06/03 Q0989 VCSH SW (230°) 15.0mph 6°C 3°C
7/03/19 15:50 EGEO 071550Z 02007KT 330V050 9999 VCSH FEW020 SCT035 08/04 Q0993 VCSH NNE (20°) 8.1mph 8°C 4°C
7/03/19 14:50 EGEO 071450Z 02008KT 9999 FEW020 SCT040 08/04 Q0992 NNE (20°) 9.2mph 8°C 4°C
7/03/19 14:20 EGEO 071420Z 36010KT 320V020 9999 FEW020 SCT040 09/03 Q0991 N (360°) 11.5mph 9°C 3°C
7/03/19 13:20 EGEO 071320Z 01007KT 340V040 9999 FEW025 SCT041 09/04 Q0990 N (10°) 8.1mph 9°C 4°C
7/03/19 12:20 EGEO 071220Z 02010KT 9999 FEW022 SCT041 09/03 Q0988 NNE (20°) 11.5mph 9°C 3°C
7/03/19 11:50 EGEO 071150Z 03012KT 9999 FEW018 SCT035 08/04 Q0988 NNE (30°) 13.8mph 8°C 4°C
7/03/19 11:20 EGEO 071120Z 36010KT 9999 FEW018 SCT044 08/04 Q0987 N (360°) 11.5mph 8°C 4°C
7/03/19 10:50 EGEO 071050Z 36009KT 9999 FEW018 SCT044 07/05 Q0986 N (360°) 10.4mph 7°C 5°C
7/03/19 10:20 EGEO 071020Z 01005KT 9999 FEW016 SCT044 BKN048 07/04 Q0986 N (10°) 5.8mph 7°C 4°C
7/03/19 09:50 EGEO 070950Z 36008KT 9999 FEW016 SCT047 07/05 Q0985 N (360°) 9.2mph 7°C 5°C
7/03/19 09:20 EGEO 070920Z 36004KT 320V020 9999 FEW018 SCT042 06/05 Q0984 N (360°) 4.6mph 6°C 5°C
7/03/19 08:20 EGEO 070820Z 01007KT 9999 -SHRA FEW018 BKN036 06/04 Q0983 -SHRA N (10°) 8.1mph 6°C 4°C
7/03/19 07:50 EGEO 070750Z 35009KT 9999 VCSH FEW018 BKN030 OVC048 06/04 Q0982 VCSH N (350°) 10.4mph 6°C 4°C
6/03/19 15:50 EGEO 061550Z 10006KT 080V170 9000 VCSH FEW020 SCT030 BKN043 08/04 Q0977 VCSH E (100°) 6.9mph 8°C 4°C
6/03/19 14:20 EGEO 061420Z 09011KT 070V130 9999 FEW021 SCT031 09/03 Q0978 E (90°) 12.7mph 9°C 3°C
6/03/19 13:20 EGEO 061320Z 10013KT 9999 VCSH FEW021 SCT027 BKN042 08/03 Q0979 VCSH E (100°) 15.0mph 8°C 3°C
6/03/19 12:50 EGEO 061250Z 10011KT 060V150 9999 VCSH FEW021 SCT027 BKN046 08/03 Q0979 VCSH E (100°) 12.7mph 8°C 3°C
6/03/19 12:20 EGEO 061220Z 09016KT 060V120 9999 VCSH FEW020 SCT024 BKN045 07/02 Q0980 VCSH E (90°) 18.4mph 7°C 2°C
6/03/19 11:50 EGEO 061150Z 09013G26KT 050V150 9999 VCSH FEW020 SCT024 BKN045 08/03 Q0980 VCSH E (90°) 15.0mph 29.9mph 8°C 3°C
6/03/19 11:20 EGEO 061120Z 08011G24KT 350V130 9999 VCSH FEW020 SCT024 BKN045 07/02 Q0980 VCSH E (80°) 12.7mph 27.6mph 7°C 2°C
6/03/19 10:50 EGEO 061050Z 10009KT 030V170 9999 VCSH FEW020 SCT028 OVC040 06/02 Q0981 VCSH E (100°) 10.4mph 6°C 2°C